sensor_id;sensor_type;location;lat;lon;timestamp;P1;durP1;ratioP1;P2;durP2;ratioP2
56770;SDS011;42641;59.794;17.616;2023-01-04T00:02:12;1.40;;;1.30;;
56770;SDS011;42641;59.794;17.616;2023-01-04T00:04:38;2.00;;;1.50;;
56770;SDS011;42641;59.794;17.616;2023-01-04T00:07:05;1.77;;;1.30;;
56770;SDS011;42641;59.794;17.616;2023-01-04T00:09:31;2.77;;;1.43;;
56770;SDS011;42641;59.794;17.616;2023-01-04T00:11:58;2.10;;;1.47;;
56770;SDS011;42641;59.794;17.616;2023-01-04T00:14:24;1.40;;;1.30;;
56770;SDS011;42641;59.794;17.616;2023-01-04T00:16:50;2.70;;;1.30;;
56770;SDS011;42641;59.794;17.616;2023-01-04T00:19:17;1.87;;;1.20;;
56770;SDS011;42641;59.794;17.616;2023-01-04T00:21:43;1.70;;;1.30;;
56770;SDS011;42641;59.794;17.616;2023-01-04T00:24:10;1.77;;;1.30;;
56770;SDS011;42641;59.794;17.616;2023-01-04T00:26:40;6.23;;;3.00;;
56770;SDS011;42641;59.794;17.616;2023-01-04T00:29:06;5.77;;;3.30;;
56770;SDS011;42641;59.794;17.616;2023-01-04T00:31:36;2.30;;;1.53;;
56770;SDS011;42641;59.794;17.616;2023-01-04T00:34:03;1.17;;;1.10;;
56770;SDS011;42641;59.794;17.616;2023-01-04T00:36:30;2.37;;;1.40;;
56770;SDS011;42641;59.794;17.616;2023-01-04T00:38:58;2.80;;;1.77;;
56770;SDS011;42641;59.794;17.616;2023-01-04T00:41:36;2.60;;;1.73;;
56770;SDS011;42641;59.794;17.616;2023-01-04T00:44:12;2.93;;;1.60;;
56770;SDS011;42641;59.794;17.616;2023-01-04T00:46:39;3.03;;;1.30;;
56770;SDS011;42641;59.794;17.616;2023-01-04T00:49:07;1.63;;;1.20;;
56770;SDS011;42641;59.794;17.616;2023-01-04T00:51:35;1.97;;;1.30;;
56770;SDS011;42641;59.794;17.616;2023-01-04T00:54:03;0.93;;;0.93;;
56770;SDS011;42641;59.794;17.616;2023-01-04T00:56:31;2.77;;;1.37;;
56770;SDS011;42641;59.794;17.616;2023-01-04T00:58:58;1.33;;;1.23;;
56770;SDS011;42641;59.794;17.616;2023-01-04T01:01:26;1.33;;;1.10;;
56770;SDS011;42641;59.794;17.616;2023-01-04T01:03:54;2.83;;;1.37;;
56770;SDS011;42641;59.794;17.616;2023-01-04T01:06:22;2.97;;;1.20;;
56770;SDS011;42641;59.794;17.616;2023-01-04T01:08:52;2.70;;;1.20;;
56770;SDS011;42641;59.794;17.616;2023-01-04T01:11:19;1.57;;;1.30;;
56770;SDS011;42641;59.794;17.616;2023-01-04T01:13:46;1.87;;;1.57;;
56770;SDS011;42641;59.794;17.616;2023-01-04T01:16:14;2.23;;;1.50;;
56770;SDS011;42641;59.794;17.616;2023-01-04T01:18:43;2.93;;;1.40;;
56770;SDS011;42641;59.794;17.616;2023-01-04T01:21:11;1.57;;;1.10;;
56770;SDS011;42641;59.794;17.616;2023-01-04T01:23:42;1.30;;;1.20;;
56770;SDS011;42641;59.794;17.616;2023-01-04T01:26:10;1.57;;;1.10;;
56770;SDS011;42641;59.794;17.616;2023-01-04T01:28:41;1.93;;;1.40;;
56770;SDS011;42641;59.794;17.616;2023-01-04T01:31:09;1.53;;;1.40;;
56770;SDS011;42641;59.794;17.616;2023-01-04T01:33:41;2.03;;;1.40;;
56770;SDS011;42641;59.794;17.616;2023-01-04T01:36:09;2.27;;;1.70;;
56770;SDS011;42641;59.794;17.616;2023-01-04T01:38:37;1.70;;;1.20;;
56770;SDS011;42641;59.794;17.616;2023-01-04T01:41:04;3.33;;;1.33;;
56770;SDS011;42641;59.794;17.616;2023-01-04T01:43:46;3.17;;;1.20;;
56770;SDS011;42641;59.794;17.616;2023-01-04T01:46:15;2.00;;;1.50;;
56770;SDS011;42641;59.794;17.616;2023-01-04T01:48:47;2.07;;;1.63;;
56770;SDS011;42641;59.794;17.616;2023-01-04T01:51:15;1.77;;;1.30;;
56770;SDS011;42641;59.794;17.616;2023-01-04T01:53:44;1.30;;;1.20;;
56770;SDS011;42641;59.794;17.616;2023-01-04T01:56:12;3.00;;;1.10;;
56770;SDS011;42641;59.794;17.616;2023-01-04T01:58:43;0.87;;;0.87;;
56770;SDS011;42641;59.794;17.616;2023-01-04T02:01:15;1.63;;;1.30;;
56770;SDS011;42641;59.794;17.616;2023-01-04T02:03:41;1.40;;;1.30;;
56770;SDS011;42641;59.794;17.616;2023-01-04T02:06:12;1.30;;;1.20;;
56770;SDS011;42641;59.794;17.616;2023-01-04T02:08:49;1.23;;;1.13;;
56770;SDS011;42641;59.794;17.616;2023-01-04T02:11:16;1.10;;;1.10;;
56770;SDS011;42641;59.794;17.616;2023-01-04T02:13:42;2.10;;;1.50;;
56770;SDS011;42641;59.794;17.616;2023-01-04T02:27:58;1.40;;;1.10;;
56770;SDS011;42641;59.794;17.616;2023-01-04T02:36:15;1.37;;;1.10;;
56770;SDS011;42641;59.794;17.616;2023-01-04T02:41:47;1.10;;;1.07;;
56770;SDS011;42641;59.794;17.616;2023-01-04T02:44:18;2.33;;;1.37;;
56770;SDS011;42641;59.794;17.616;2023-01-04T02:47:13;1.37;;;1.13;;
56770;SDS011;42641;59.794;17.616;2023-01-04T02:49:42;1.70;;;1.10;;
56770;SDS011;42641;59.794;17.616;2023-01-04T02:52:40;2.03;;;1.20;;
56770;SDS011;42641;59.794;17.616;2023-01-04T02:55:07;2.07;;;1.10;;
56770;SDS011;42641;59.794;17.616;2023-01-04T03:00:27;0.90;;;0.90;;
56770;SDS011;42641;59.794;17.616;2023-01-04T03:03:26;1.87;;;1.53;;
56770;SDS011;42641;59.794;17.616;2023-01-04T03:06:28;1.83;;;1.30;;
56770;SDS011;42641;59.794;17.616;2023-01-04T03:09:08;1.40;;;1.30;;
56770;SDS011;42641;59.794;17.616;2023-01-04T03:11:44;1.80;;;1.37;;
56770;SDS011;42641;59.794;17.616;2023-01-04T03:14:49;2.90;;;1.50;;
56770;SDS011;42641;59.794;17.616;2023-01-04T03:17:18;2.53;;;1.50;;
56770;SDS011;42641;59.794;17.616;2023-01-04T03:19:48;1.70;;;1.27;;
56770;SDS011;42641;59.794;17.616;2023-01-04T03:22:21;1.47;;;1.27;;
56770;SDS011;42641;59.794;17.616;2023-01-04T03:25:22;2.60;;;1.10;;
56770;SDS011;42641;59.794;17.616;2023-01-04T03:28:19;1.60;;;1.47;;
56770;SDS011;42641;59.794;17.616;2023-01-04T03:31:09;2.63;;;1.60;;
56770;SDS011;42641;59.794;17.616;2023-01-04T03:34:24;2.03;;;1.50;;
56770;SDS011;42641;59.794;17.616;2023-01-04T03:37:14;2.00;;;1.27;;
56770;SDS011;42641;59.794;17.616;2023-01-04T03:43:16;1.40;;;1.30;;
56770;SDS011;42641;59.794;17.616;2023-01-04T03:46:08;1.30;;;1.20;;
56770;SDS011;42641;59.794;17.616;2023-01-04T03:49:12;2.10;;;1.17;;
56770;SDS011;42641;59.794;17.616;2023-01-04T03:52:01;1.40;;;1.30;;
56770;SDS011;42641;59.794;17.616;2023-01-04T03:54:31;1.57;;;1.20;;
56770;SDS011;42641;59.794;17.616;2023-01-04T03:57:01;1.77;;;1.40;;
56770;SDS011;42641;59.794;17.616;2023-01-04T03:59:29;2.37;;;1.50;;
56770;SDS011;42641;59.794;17.616;2023-01-04T04:01:56;2.50;;;1.60;;
56770;SDS011;42641;59.794;17.616;2023-01-04T04:04:22;1.67;;;1.07;;
56770;SDS011;42641;59.794;17.616;2023-01-04T04:07:07;1.37;;;1.20;;
56770;SDS011;42641;59.794;17.616;2023-01-04T04:09:51;1.50;;;1.30;;
56770;SDS011;42641;59.794;17.616;2023-01-04T04:12:18;2.63;;;1.57;;
56770;SDS011;42641;59.794;17.616;2023-01-04T04:14:44;2.10;;;1.47;;
56770;SDS011;42641;59.794;17.616;2023-01-04T04:17:11;0.90;;;0.90;;
56770;SDS011;42641;59.794;17.616;2023-01-04T04:19:37;1.77;;;1.20;;
56770;SDS011;42641;59.794;17.616;2023-01-04T04:22:03;1.50;;;1.40;;
56770;SDS011;42641;59.794;17.616;2023-01-04T04:24:30;2.00;;;1.30;;
56770;SDS011;42641;59.794;17.616;2023-01-04T04:26:56;2.23;;;1.20;;
56770;SDS011;42641;59.794;17.616;2023-01-04T04:29:23;1.87;;;1.43;;
56770;SDS011;42641;59.794;17.616;2023-01-04T04:31:50;1.57;;;1.13;;
56770;SDS011;42641;59.794;17.616;2023-01-04T04:34:16;1.10;;;1.00;;
56770;SDS011;42641;59.794;17.616;2023-01-04T04:36:42;2.13;;;1.30;;
56770;SDS011;42641;59.794;17.616;2023-01-04T04:39:09;1.20;;;1.03;;
56770;SDS011;42641;59.794;17.616;2023-01-04T04:41:36;2.27;;;1.10;;
56770;SDS011;42641;59.794;17.616;2023-01-04T04:44:07;1.10;;;1.00;;
56770;SDS011;42641;59.794;17.616;2023-01-04T04:46:34;1.83;;;1.33;;
56770;SDS011;42641;59.794;17.616;2023-01-04T04:49:00;2.43;;;1.40;;
56770;SDS011;42641;59.794;17.616;2023-01-04T04:51:28;2.27;;;1.00;;
56770;SDS011;42641;59.794;17.616;2023-01-04T04:53:54;3.00;;;1.40;;
56770;SDS011;42641;59.794;17.616;2023-01-04T04:56:21;2.63;;;1.60;;
56770;SDS011;42641;59.794;17.616;2023-01-04T04:58:47;1.77;;;1.60;;
56770;SDS011;42641;59.794;17.616;2023-01-04T05:01:14;1.70;;;1.33;;
56770;SDS011;42641;59.794;17.616;2023-01-04T05:03:41;1.40;;;1.30;;
56770;SDS011;42641;59.794;17.616;2023-01-04T05:06:07;4.00;;;1.90;;
56770;SDS011;42641;59.794;17.616;2023-01-04T05:08:34;2.73;;;1.50;;
56770;SDS011;42641;59.794;17.616;2023-01-04T05:11:04;4.83;;;1.70;;
56770;SDS011;42641;59.794;17.616;2023-01-04T05:13:31;2.93;;;1.87;;
56770;SDS011;42641;59.794;17.616;2023-01-04T05:15:58;1.70;;;1.60;;
56770;SDS011;42641;59.794;17.616;2023-01-04T05:18:24;2.57;;;1.80;;
56770;SDS011;42641;59.794;17.616;2023-01-04T05:20:51;4.63;;;1.90;;
56770;SDS011;42641;59.794;17.616;2023-01-04T05:23:18;6.13;;;2.13;;
56770;SDS011;42641;59.794;17.616;2023-01-04T05:25:49;4.13;;;1.93;;
56770;SDS011;42641;59.794;17.616;2023-01-04T05:28:17;5.77;;;2.30;;
56770;SDS011;42641;59.794;17.616;2023-01-04T05:30:44;7.13;;;2.53;;
56770;SDS011;42641;59.794;17.616;2023-01-04T05:33:16;3.83;;;2.13;;
56770;SDS011;42641;59.794;17.616;2023-01-04T05:35:44;4.40;;;1.77;;
56770;SDS011;42641;59.794;17.616;2023-01-04T05:38:11;5.80;;;2.10;;
56770;SDS011;42641;59.794;17.616;2023-01-04T05:40:38;7.23;;;2.70;;
56770;SDS011;42641;59.794;17.616;2023-01-04T05:43:04;16.07;;;2.87;;
56770;SDS011;42641;59.794;17.616;2023-01-04T05:45:31;16.10;;;2.70;;
56770;SDS011;42641;59.794;17.616;2023-01-04T05:47:57;10.30;;;3.37;;
56770;SDS011;42641;59.794;17.616;2023-01-04T05:50:24;10.33;;;2.63;;
56770;SDS011;42641;59.794;17.616;2023-01-04T05:52:50;5.23;;;2.33;;
56770;SDS011;42641;59.794;17.616;2023-01-04T05:55:17;5.23;;;2.30;;
56770;SDS011;42641;59.794;17.616;2023-01-04T05:57:44;6.63;;;2.50;;
56770;SDS011;42641;59.794;17.616;2023-01-04T06:00:11;10.07;;;2.70;;
56770;SDS011;42641;59.794;17.616;2023-01-04T06:02:39;4.47;;;2.03;;
56770;SDS011;42641;59.794;17.616;2023-01-04T06:05:06;5.07;;;2.37;;
56770;SDS011;42641;59.794;17.616;2023-01-04T06:07:34;5.53;;;2.23;;
56770;SDS011;42641;59.794;17.616;2023-01-04T06:10:01;4.47;;;2.27;;
56770;SDS011;42641;59.794;17.616;2023-01-04T06:12:27;3.40;;;2.10;;
56770;SDS011;42641;59.794;17.616;2023-01-04T06:14:53;3.20;;;1.90;;
56770;SDS011;42641;59.794;17.616;2023-01-04T06:17:20;7.57;;;2.10;;
56770;SDS011;42641;59.794;17.616;2023-01-04T06:19:46;8.73;;;1.60;;
56770;SDS011;42641;59.794;17.616;2023-01-04T06:22:13;6.73;;;1.90;;
56770;SDS011;42641;59.794;17.616;2023-01-04T06:24:39;6.53;;;2.07;;
56770;SDS011;42641;59.794;17.616;2023-01-04T06:27:06;2.43;;;1.70;;
56770;SDS011;42641;59.794;17.616;2023-01-04T06:29:32;6.40;;;1.70;;
56770;SDS011;42641;59.794;17.616;2023-01-04T06:31:58;3.30;;;1.60;;
56770;SDS011;42641;59.794;17.616;2023-01-04T06:34:25;2.10;;;1.53;;
56770;SDS011;42641;59.794;17.616;2023-01-04T06:36:51;2.40;;;1.30;;
56770;SDS011;42641;59.794;17.616;2023-01-04T06:39:18;1.73;;;1.30;;
56770;SDS011;42641;59.794;17.616;2023-01-04T06:41:44;1.37;;;1.27;;
56770;SDS011;42641;59.794;17.616;2023-01-04T06:44:11;2.90;;;1.17;;
56770;SDS011;42641;59.794;17.616;2023-01-04T06:46:37;1.20;;;1.10;;
56770;SDS011;42641;59.794;17.616;2023-01-04T06:49:06;1.43;;;1.33;;
56770;SDS011;42641;59.794;17.616;2023-01-04T06:51:32;2.10;;;1.50;;
56770;SDS011;42641;59.794;17.616;2023-01-04T06:53:58;2.90;;;1.50;;
56770;SDS011;42641;59.794;17.616;2023-01-04T06:56:25;1.87;;;1.50;;
56770;SDS011;42641;59.794;17.616;2023-01-04T06:58:51;1.40;;;1.23;;
56770;SDS011;42641;59.794;17.616;2023-01-04T07:01:18;1.83;;;1.67;;
56770;SDS011;42641;59.794;17.616;2023-01-04T07:03:44;2.03;;;1.60;;
56770;SDS011;42641;59.794;17.616;2023-01-04T07:06:10;2.20;;;1.70;;
56770;SDS011;42641;59.794;17.616;2023-01-04T07:08:37;2.40;;;1.33;;
56770;SDS011;42641;59.794;17.616;2023-01-04T07:11:03;2.10;;;1.30;;
56770;SDS011;42641;59.794;17.616;2023-01-04T07:13:30;1.67;;;1.30;;
56770;SDS011;42641;59.794;17.616;2023-01-04T07:15:56;1.60;;;1.23;;
56770;SDS011;42641;59.794;17.616;2023-01-04T07:18:23;1.40;;;1.27;;
56770;SDS011;42641;59.794;17.616;2023-01-04T07:20:49;2.10;;;1.03;;
56770;SDS011;42641;59.794;17.616;2023-01-04T07:23:16;1.77;;;1.40;;
56770;SDS011;42641;59.794;17.616;2023-01-04T07:25:42;1.67;;;1.27;;
56770;SDS011;42641;59.794;17.616;2023-01-04T07:28:08;1.87;;;1.23;;
56770;SDS011;42641;59.794;17.616;2023-01-04T07:30:35;1.50;;;1.20;;
56770;SDS011;42641;59.794;17.616;2023-01-04T07:33:01;1.50;;;1.20;;
56770;SDS011;42641;59.794;17.616;2023-01-04T07:35:28;2.33;;;1.80;;
56770;SDS011;42641;59.794;17.616;2023-01-04T07:37:54;2.67;;;1.57;;
56770;SDS011;42641;59.794;17.616;2023-01-04T07:40:20;2.57;;;1.43;;
56770;SDS011;42641;59.794;17.616;2023-01-04T07:42:53;1.50;;;1.37;;
56770;SDS011;42641;59.794;17.616;2023-01-04T07:45:21;2.40;;;1.53;;
56770;SDS011;42641;59.794;17.616;2023-01-04T07:47:48;1.90;;;1.60;;
56770;SDS011;42641;59.794;17.616;2023-01-04T07:50:14;2.37;;;1.63;;
56770;SDS011;42641;59.794;17.616;2023-01-04T07:52:40;3.67;;;1.47;;
56770;SDS011;42641;59.794;17.616;2023-01-04T07:55:07;1.73;;;1.47;;
56770;SDS011;42641;59.794;17.616;2023-01-04T07:57:34;1.93;;;1.33;;
56770;SDS011;42641;59.794;17.616;2023-01-04T08:00:00;1.50;;;1.30;;
56770;SDS011;42641;59.794;17.616;2023-01-04T08:02:27;1.97;;;1.50;;
56770;SDS011;42641;59.794;17.616;2023-01-04T08:04:54;1.73;;;1.20;;
56770;SDS011;42641;59.794;17.616;2023-01-04T08:07:21;1.77;;;1.20;;
56770;SDS011;42641;59.794;17.616;2023-01-04T08:09:47;1.60;;;1.30;;
56770;SDS011;42641;59.794;17.616;2023-01-04T08:12:13;1.50;;;1.40;;
56770;SDS011;42641;59.794;17.616;2023-01-04T08:14:40;3.33;;;1.30;;
56770;SDS011;42641;59.794;17.616;2023-01-04T08:17:06;1.53;;;1.17;;
56770;SDS011;42641;59.794;17.616;2023-01-04T08:19:34;1.40;;;1.30;;
56770;SDS011;42641;59.794;17.616;2023-01-04T08:22:00;2.17;;;1.50;;
56770;SDS011;42641;59.794;17.616;2023-01-04T08:24:27;2.00;;;1.50;;
56770;SDS011;42641;59.794;17.616;2023-01-04T08:26:53;1.70;;;1.50;;
56770;SDS011;42641;59.794;17.616;2023-01-04T08:29:20;1.10;;;1.00;;
56770;SDS011;42641;59.794;17.616;2023-01-04T08:31:46;1.47;;;1.37;;
56770;SDS011;42641;59.794;17.616;2023-01-04T08:34:13;2.47;;;1.47;;
56770;SDS011;42641;59.794;17.616;2023-01-04T08:36:46;2.90;;;1.30;;
56770;SDS011;42641;59.794;17.616;2023-01-04T08:39:15;1.93;;;1.40;;
56770;SDS011;42641;59.794;17.616;2023-01-04T08:41:41;1.57;;;1.47;;
56770;SDS011;42641;59.794;17.616;2023-01-04T08:44:17;1.73;;;1.20;;
56770;SDS011;42641;59.794;17.616;2023-01-04T08:46:48;1.83;;;1.43;;
56770;SDS011;42641;59.794;17.616;2023-01-04T08:49:15;2.67;;;1.43;;
56770;SDS011;42641;59.794;17.616;2023-01-04T08:51:41;3.07;;;1.50;;
56770;SDS011;42641;59.794;17.616;2023-01-04T08:54:08;1.73;;;1.50;;
56770;SDS011;42641;59.794;17.616;2023-01-04T08:56:35;1.43;;;1.33;;
56770;SDS011;42641;59.794;17.616;2023-01-04T08:59:01;1.50;;;1.40;;
56770;SDS011;42641;59.794;17.616;2023-01-04T09:01:29;1.57;;;1.47;;
56770;SDS011;42641;59.794;17.616;2023-01-04T09:03:56;1.90;;;1.70;;
56770;SDS011;42641;59.794;17.616;2023-01-04T09:06:23;3.47;;;1.53;;
56770;SDS011;42641;59.794;17.616;2023-01-04T09:08:49;2.60;;;1.50;;
56770;SDS011;42641;59.794;17.616;2023-01-04T09:11:17;1.70;;;1.60;;
56770;SDS011;42641;59.794;17.616;2023-01-04T09:13:47;3.23;;;1.40;;
56770;SDS011;42641;59.794;17.616;2023-01-04T09:16:18;2.10;;;1.70;;
56770;SDS011;42641;59.794;17.616;2023-01-04T09:18:45;1.73;;;1.63;;
56770;SDS011;42641;59.794;17.616;2023-01-04T09:21:13;4.70;;;3.20;;
56770;SDS011;42641;59.794;17.616;2023-01-04T09:23:44;13.53;;;5.50;;
56770;SDS011;42641;59.794;17.616;2023-01-04T09:26:12;13.77;;;7.87;;
56770;SDS011;42641;59.794;17.616;2023-01-04T09:28:41;9.47;;;5.80;;
56770;SDS011;42641;59.794;17.616;2023-01-04T09:31:09;4.67;;;3.63;;
56770;SDS011;42641;59.794;17.616;2023-01-04T09:33:38;4.10;;;3.17;;
56770;SDS011;42641;59.794;17.616;2023-01-04T09:36:05;5.40;;;3.70;;
56770;SDS011;42641;59.794;17.616;2023-01-04T09:38:32;5.17;;;3.30;;
56770;SDS011;42641;59.794;17.616;2023-01-04T09:41:23;5.67;;;3.47;;
56770;SDS011;42641;59.794;17.616;2023-01-04T09:43:54;4.77;;;3.60;;
56770;SDS011;42641;59.794;17.616;2023-01-04T10:02:44;3.67;;;2.70;;
56770;SDS011;42641;59.794;17.616;2023-01-04T10:05:20;2.97;;;2.50;;
56770;SDS011;42641;59.794;17.616;2023-01-04T10:07:50;3.70;;;2.53;;
56770;SDS011;42641;59.794;17.616;2023-01-04T10:10:21;4.13;;;2.67;;
56770;SDS011;42641;59.794;17.616;2023-01-04T10:13:29;3.20;;;2.50;;
56770;SDS011;42641;59.794;17.616;2023-01-04T10:16:05;2.63;;;2.20;;
56770;SDS011;42641;59.794;17.616;2023-01-04T10:21:30;4.83;;;2.97;;
56770;SDS011;42641;59.794;17.616;2023-01-04T10:32:34;3.13;;;2.50;;
56770;SDS011;42641;59.794;17.616;2023-01-04T10:35:18;2.80;;;2.03;;
56770;SDS011;42641;59.794;17.616;2023-01-04T10:38:33;2.87;;;2.20;;
56770;SDS011;42641;59.794;17.616;2023-01-04T10:40:41;4.37;;;2.50;;
56770;SDS011;42641;59.794;17.616;2023-01-04T10:43:13;2.80;;;2.30;;
56770;SDS011;42641;59.794;17.616;2023-01-04T10:45:59;3.10;;;2.10;;
56770;SDS011;42641;59.794;17.616;2023-01-04T10:51:42;5.23;;;2.53;;
56770;SDS011;42641;59.794;17.616;2023-01-04T10:57:03;4.10;;;2.80;;
56770;SDS011;42641;59.794;17.616;2023-01-04T11:02:34;4.57;;;2.67;;
56770;SDS011;42641;59.794;17.616;2023-01-04T11:05:20;3.43;;;2.20;;
56770;SDS011;42641;59.794;17.616;2023-01-04T11:08:02;4.17;;;2.20;;
56770;SDS011;42641;59.794;17.616;2023-01-04T11:10:37;5.20;;;2.87;;
56770;SDS011;42641;59.794;17.616;2023-01-04T11:13:09;6.23;;;3.10;;
56770;SDS011;42641;59.794;17.616;2023-01-04T11:15:36;3.80;;;2.83;;
56770;SDS011;42641;59.794;17.616;2023-01-04T11:18:03;8.13;;;2.90;;
56770;SDS011;42641;59.794;17.616;2023-01-04T11:20:32;4.37;;;2.90;;
56770;SDS011;42641;59.794;17.616;2023-01-04T11:28:30;4.90;;;2.97;;
56770;SDS011;42641;59.794;17.616;2023-01-04T11:31:08;5.03;;;2.80;;
56770;SDS011;42641;59.794;17.616;2023-01-04T11:33:57;5.07;;;2.63;;
56770;SDS011;42641;59.794;17.616;2023-01-04T11:36:33;5.83;;;2.97;;
56770;SDS011;42641;59.794;17.616;2023-01-04T11:39:00;3.93;;;3.00;;
56770;SDS011;42641;59.794;17.616;2023-01-04T11:41:27;4.37;;;2.70;;
56770;SDS011;42641;59.794;17.616;2023-01-04T11:43:58;4.73;;;2.60;;
56770;SDS011;42641;59.794;17.616;2023-01-04T11:46:26;4.10;;;2.90;;
56770;SDS011;42641;59.794;17.616;2023-01-04T11:48:53;4.10;;;2.67;;
56770;SDS011;42641;59.794;17.616;2023-01-04T11:56:25;3.10;;;2.30;;
56770;SDS011;42641;59.794;17.616;2023-01-04T11:59:13;3.37;;;2.50;;
56770;SDS011;42641;59.794;17.616;2023-01-04T12:01:44;3.30;;;2.30;;
56770;SDS011;42641;59.794;17.616;2023-01-04T12:04:14;4.23;;;2.10;;
56770;SDS011;42641;59.794;17.616;2023-01-04T12:06:52;3.17;;;2.30;;
56770;SDS011;42641;59.794;17.616;2023-01-04T12:09:24;6.63;;;2.60;;
56770;SDS011;42641;59.794;17.616;2023-01-04T12:11:51;3.27;;;2.20;;
56770;SDS011;42641;59.794;17.616;2023-01-04T12:19:21;3.27;;;2.13;;
56770;SDS011;42641;59.794;17.616;2023-01-04T12:21:48;2.80;;;2.30;;
56770;SDS011;42641;59.794;17.616;2023-01-04T12:24:22;4.97;;;2.30;;
56770;SDS011;42641;59.794;17.616;2023-01-04T12:26:51;3.60;;;2.83;;
56770;SDS011;42641;59.794;17.616;2023-01-04T12:31:51;4.70;;;2.87;;
56770;SDS011;42641;59.794;17.616;2023-01-04T12:34:41;3.90;;;2.40;;
56770;SDS011;42641;59.794;17.616;2023-01-04T12:37:10;3.63;;;2.03;;
56770;SDS011;42641;59.794;17.616;2023-01-04T12:39:56;3.33;;;2.33;;
56770;SDS011;42641;59.794;17.616;2023-01-04T12:42:23;2.33;;;2.13;;
56770;SDS011;42641;59.794;17.616;2023-01-04T12:50:06;4.60;;;2.43;;
56770;SDS011;42641;59.794;17.616;2023-01-04T12:52:46;3.13;;;2.60;;
56770;SDS011;42641;59.794;17.616;2023-01-04T12:55:25;3.93;;;2.43;;
56770;SDS011;42641;59.794;17.616;2023-01-04T12:57:52;4.90;;;2.50;;
56770;SDS011;42641;59.794;17.616;2023-01-04T13:00:18;3.87;;;2.33;;
56770;SDS011;42641;59.794;17.616;2023-01-04T13:02:45;3.67;;;2.30;;
56770;SDS011;42641;59.794;17.616;2023-01-04T13:05:33;2.27;;;2.07;;
56770;SDS011;42641;59.794;17.616;2023-01-04T13:08:05;3.80;;;2.37;;
56770;SDS011;42641;59.794;17.616;2023-01-04T13:20:59;1.83;;;1.67;;
56770;SDS011;42641;59.794;17.616;2023-01-04T13:23:50;1.83;;;1.70;;
56770;SDS011;42641;59.794;17.616;2023-01-04T13:34:18;3.00;;;1.70;;
56770;SDS011;42641;59.794;17.616;2023-01-04T13:37:05;1.93;;;1.73;;
56770;SDS011;42641;59.794;17.616;2023-01-04T13:39:48;2.90;;;1.90;;
56770;SDS011;42641;59.794;17.616;2023-01-04T13:42:26;2.60;;;1.70;;
56770;SDS011;42641;59.794;17.616;2023-01-04T13:48:14;3.90;;;2.43;;
56770;SDS011;42641;59.794;17.616;2023-01-04T13:50:45;4.37;;;1.87;;
56770;SDS011;42641;59.794;17.616;2023-01-04T13:53:58;3.03;;;2.00;;
56770;SDS011;42641;59.794;17.616;2023-01-04T13:56:28;2.93;;;2.30;;
56770;SDS011;42641;59.794;17.616;2023-01-04T13:58:56;3.73;;;1.83;;
56770;SDS011;42641;59.794;17.616;2023-01-04T14:01:23;2.67;;;1.90;;
56770;SDS011;42641;59.794;17.616;2023-01-04T14:06:51;3.90;;;2.10;;
56770;SDS011;42641;59.794;17.616;2023-01-04T14:09:35;3.23;;;1.90;;
56770;SDS011;42641;59.794;17.616;2023-01-04T14:12:18;1.70;;;1.60;;
56770;SDS011;42641;59.794;17.616;2023-01-04T14:19:51;3.07;;;1.50;;
56770;SDS011;42641;59.794;17.616;2023-01-04T14:22:23;2.83;;;1.50;;
56770;SDS011;42641;59.794;17.616;2023-01-04T14:24:54;2.70;;;1.80;;
56770;SDS011;42641;59.794;17.616;2023-01-04T14:27:32;3.70;;;1.60;;
56770;SDS011;42641;59.794;17.616;2023-01-04T14:32:55;3.10;;;1.53;;
56770;SDS011;42641;59.794;17.616;2023-01-04T14:35:38;1.87;;;1.43;;
56770;SDS011;42641;59.794;17.616;2023-01-04T14:38:05;1.67;;;1.37;;
56770;SDS011;42641;59.794;17.616;2023-01-04T14:40:39;1.47;;;1.33;;
56770;SDS011;42641;59.794;17.616;2023-01-04T14:46:21;2.70;;;1.10;;
56770;SDS011;42641;59.794;17.616;2023-01-04T14:48:48;3.07;;;1.10;;
56770;SDS011;42641;59.794;17.616;2023-01-04T14:51:15;1.27;;;1.13;;
56770;SDS011;42641;59.794;17.616;2023-01-04T14:53:44;1.80;;;1.30;;
56770;SDS011;42641;59.794;17.616;2023-01-04T14:56:12;1.43;;;1.33;;
56770;SDS011;42641;59.794;17.616;2023-01-04T14:58:40;2.53;;;1.30;;
56770;SDS011;42641;59.794;17.616;2023-01-04T15:01:07;2.17;;;1.30;;
56770;SDS011;42641;59.794;17.616;2023-01-04T15:03:34;1.30;;;1.20;;
56770;SDS011;42641;59.794;17.616;2023-01-04T15:06:00;2.33;;;1.30;;
56770;SDS011;42641;59.794;17.616;2023-01-04T15:08:27;1.97;;;1.10;;
56770;SDS011;42641;59.794;17.616;2023-01-04T15:10:53;2.03;;;1.20;;
56770;SDS011;42641;59.794;17.616;2023-01-04T15:13:19;1.80;;;1.27;;
56770;SDS011;42641;59.794;17.616;2023-01-04T15:15:46;1.50;;;1.20;;
56770;SDS011;42641;59.794;17.616;2023-01-04T15:18:12;1.57;;;1.23;;
56770;SDS011;42641;59.794;17.616;2023-01-04T15:20:39;1.50;;;1.23;;
56770;SDS011;42641;59.794;17.616;2023-01-04T15:23:06;3.07;;;1.30;;
56770;SDS011;42641;59.794;17.616;2023-01-04T15:25:33;1.23;;;1.10;;
56770;SDS011;42641;59.794;17.616;2023-01-04T15:28:00;1.40;;;1.30;;
56770;SDS011;42641;59.794;17.616;2023-01-04T15:30:26;1.13;;;1.10;;
56770;SDS011;42641;59.794;17.616;2023-01-04T15:32:52;1.13;;;1.00;;
56770;SDS011;42641;59.794;17.616;2023-01-04T15:35:19;1.87;;;1.03;;
56770;SDS011;42641;59.794;17.616;2023-01-04T15:37:45;2.27;;;1.27;;
56770;SDS011;42641;59.794;17.616;2023-01-04T15:40:14;1.37;;;0.97;;
56770;SDS011;42641;59.794;17.616;2023-01-04T15:42:42;1.27;;;1.17;;
56770;SDS011;42641;59.794;17.616;2023-01-04T15:45:28;1.77;;;1.07;;
56770;SDS011;42641;59.794;17.616;2023-01-04T15:47:56;1.60;;;1.50;;
56770;SDS011;42641;59.794;17.616;2023-01-04T15:50:28;1.97;;;1.57;;
56770;SDS011;42641;59.794;17.616;2023-01-04T15:52:55;1.40;;;1.30;;
56770;SDS011;42641;59.794;17.616;2023-01-04T15:55:22;2.30;;;1.63;;
56770;SDS011;42641;59.794;17.616;2023-01-04T15:57:49;1.23;;;1.03;;
56770;SDS011;42641;59.794;17.616;2023-01-04T16:00:15;2.33;;;1.30;;
56770;SDS011;42641;59.794;17.616;2023-01-04T16:02:42;1.60;;;1.20;;
56770;SDS011;42641;59.794;17.616;2023-01-04T16:05:08;2.00;;;1.40;;
56770;SDS011;42641;59.794;17.616;2023-01-04T16:07:35;1.80;;;1.40;;
56770;SDS011;42641;59.794;17.616;2023-01-04T16:10:01;1.83;;;1.40;;
56770;SDS011;42641;59.794;17.616;2023-01-04T16:12:28;1.27;;;1.17;;
56770;SDS011;42641;59.794;17.616;2023-01-04T16:15:07;2.53;;;1.10;;
56770;SDS011;42641;59.794;17.616;2023-01-04T16:17:35;0.93;;;0.80;;
56770;SDS011;42641;59.794;17.616;2023-01-04T16:20:01;2.37;;;1.20;;
56770;SDS011;42641;59.794;17.616;2023-01-04T16:22:29;2.70;;;1.30;;
56770;SDS011;42641;59.794;17.616;2023-01-04T16:24:55;1.70;;;1.10;;
56770;SDS011;42641;59.794;17.616;2023-01-04T16:27:22;1.10;;;1.00;;
56770;SDS011;42641;59.794;17.616;2023-01-04T16:29:48;1.70;;;1.10;;
56770;SDS011;42641;59.794;17.616;2023-01-04T16:32:17;1.10;;;0.90;;
56770;SDS011;42641;59.794;17.616;2023-01-04T16:34:44;1.67;;;1.10;;
56770;SDS011;42641;59.794;17.616;2023-01-04T16:37:10;1.47;;;1.30;;
56770;SDS011;42641;59.794;17.616;2023-01-04T16:39:37;2.73;;;1.23;;
56770;SDS011;42641;59.794;17.616;2023-01-04T16:42:03;2.10;;;1.00;;
56770;SDS011;42641;59.794;17.616;2023-01-04T16:44:30;1.20;;;1.10;;
56770;SDS011;42641;59.794;17.616;2023-01-04T16:46:56;1.20;;;1.10;;
56770;SDS011;42641;59.794;17.616;2023-01-04T16:49:22;1.20;;;1.10;;
56770;SDS011;42641;59.794;17.616;2023-01-04T16:51:49;1.30;;;1.20;;
56770;SDS011;42641;59.794;17.616;2023-01-04T16:54:16;4.17;;;1.60;;
56770;SDS011;42641;59.794;17.616;2023-01-04T16:56:44;1.40;;;1.30;;